Fruitland
, Fruitland
Last Weather Update:1/30/2012 11:00:00 PM
Date
ETo
ETc
Rain
Irrigation
Req
Temp
Max
Temp
Min
Temp
Avg
Avg RH
Avg Wind
Avg Solar
inches
inches
incehs
inches
F
F
F
%
%
watts/m2
12/1/2011 0.02" 0.00" 0.00" 0.00" 176.0° 1.0° 19.6° 87.0% 5.4 MPH 75.2w/m2
12/2/2011 0.02" 0.00" 0.00" 0.00" 27.9° F 20.3° 80.9% 0.4 MPH 84.6w/m2
12/3/2011 0.02" 0.00" 0.00" 0.00" 31.2° 7.6° 18.5° 78.8% 1.4 MPH 79.4w/m2
12/4/2011 0.02" 0.00" 0.00" 0.00" 24.2° 5.1° 15.6° 74.3% 2.6 MPH 74.3w/m2
12/5/2011 0.03" 0.00" 0.00" 0.00" 25.2° F 9.3° 65.8% 3.2 MPH 119.4w/m2
12/6/2011 0.03" 0.00" 0.00" 0.00" 27.8° F 15.0° 62.1% 9.1 MPH 111.0w/m2
12/7/2011 0.03" 0.00" 0.00" 0.00" 32.4° F 10.1° 71.3% 0.6 MPH 114.0w/m2
12/8/2011 0.05" 0.00" 0.04" -0.03" 41.0° 4.3° 26.8° 62.9% 6.5 MPH 114.7w/m2
12/9/2011 0.04" 0.00" 0.01" -0.01" 40.3° 9.3° 26.8° 60.9% 6.1 MPH 111.0w/m2
12/10/2011 0.04" 0.00" 0.00" 0.00" 39.8° 2.4° 16.9° 70.3% 0.9 MPH 111.9w/m2
12/11/2011 0.03" 0.00" 0.00" 0.00" 37.7° 2.5° 16.1° 74.6% 0.0 MPH 104.2w/m2
12/12/2011 0.02" 0.00" 0.00" 0.00" 34.9° 1.8° 18.3° 81.2% 0.0 MPH 61.4w/m2
12/13/2011 0.02" 0.00" 0.18" -0.14" 38.7° 12.0° 24.8° 86.3% 0.1 MPH 43.7w/m2
12/14/2011 0.04" 0.00" 0.00" 0.00" 34.0° 9.2° 23.9° 73.5% 7.2 MPH 101.0w/m2
12/15/2011 0.02" 0.00" 0.00" 0.00" 30.6° F 13.9° 80.3% 1.6 MPH 103.6w/m2
12/16/2011 0.02" 0.00" 0.00" 0.00" 29.8° 4.8° 14.5° 83.5% 0.1 MPH 100.1w/m2
12/17/2011 0.02" 0.00" 0.00" 0.00" 29.8° F 8.6° 82.9% 0.1 MPH 89.5w/m2
12/18/2011 0.02" 0.00" 0.00" 0.00" 34.6° F 9.7° 77.7% 0.0 MPH 92.1w/m2
12/19/2011 0.03" 0.00" 0.00" 0.00" 37.9° F 14.1° 75.2% 0.7 MPH 106.3w/m2
12/20/2011 0.03" 0.00" 0.00" 0.00" 39.8° 0.0° 15.7° 77.1% 0.8 MPH 105.2w/m2
12/21/2011 0.04" 0.00" 0.00" 0.00" 32.0° 8.5° 22.5° 63.6% 9.3 MPH 88.7w/m2
12/22/2011 0.03" 0.00" 0.00" 0.00" 34.8° 3.0° 18.1° 55.8% 2.3 MPH 92.7w/m2
12/23/2011 0.03" 0.00" 0.00" 0.00" 31.2° 4.4° 17.5° 49.3% 1.8 MPH 107.0w/m2
12/24/2011 0.03" 0.00" 0.00" 0.00" 33.7° F 14.8° 59.9% 1.1 MPH 97.7w/m2
12/25/2011 0.03" 0.00" 0.00" 0.00" 41.9° 0.1° 16.2° 66.4% 0.8 MPH 107.2w/m2
12/26/2011 0.06" 0.00" 0.00" 0.00" 45.1° 15.9° 29.8° 45.2% 6.3 MPH 93.8w/m2
12/27/2011 0.06" 0.00" 0.00" 0.00" 44.7° 10.4° 27.3° 49.4% 5.7 MPH 106.8w/m2
12/28/2011 0.06" 0.00" 0.00" 0.00" 47.2° 16.9° 35.7° 48.5% 6.1 MPH 101.5w/m2
12/29/2011 0.05" 0.00" 0.01" -0.01" 47.7° 27.8° 37.8° 64.9% 9.1 MPH 69.5w/m2
12/30/2011 0.05" 0.00" 0.00" 0.00" 55.0° 20.6° 37.6° 59.6% 2.9 MPH 95.6w/m2
12/31/2011 0.06" 0.00" 0.00" 0.00" 48.5° 14.6° 26.3° 45.3% 11.5 MPH 112.6w/m2
Totals: 1.07" 0.00" 0.24" -0.19" 176.0° F 20.1° 68.2% 3.4 MPH 96.0w/m2